メインページ
METAR-TAF:

METAR-TAF

空港 :

成都, 中華人民共和国

成都双流国際空港

緯度: 30-40N, 経度: 104-01E, 海抜: 508m

現時点の気象観測

当レポートは21分前の06:00(UTC)に作成
北東の風 4kt、からの間で変化する
気温 10°C
湿度 71%
気圧 1021 hPa
視程: 6000m
高度3000ftの雲は散在している

METAR: ZUUU 140600Z 04002MPS 360V090 6000 SCT030 10/05 Q1021 NOSIG

時間: 14:21 (06:21 UTC)

予報

当レポートは3時間58分前の02:23(UTC)に作成
予報は14日の 06時(UTC)から 15日の 06時(UTC)まで有効
北/北東の風 6kt
視程: 3500m
高度4000ftの雲は散在している
14日の 15時(UTC)から 14日の 17時(UTC)まで一時的に
小雨

TAF: ZUUU 140223Z 1406/1506 02003MPS 3500 BR SCT040 TX10/1407Z TN06/1423Z TEMPO 1415/1417 -RA

4,000以上の空港の気象観測と天気予報(METAR報とTAF報)

利用可能な観測所は地図上に黄色い丸と赤い丸で示す。

丸の上にカーソルを重ねると観測所名を参照できる。

次にクリックすると気象観測と天気予報を参照できる。

マップの切り替え:黒色「×」印の緑ボタンをクリックして拡大、「-」印の緑ボタンをクリックして縮小、緑色の三角印をクリックして隣りの地図に切り替え


METAR-TAF: